createdAt,value
2022-11-23T00:02:45.779Z,96724.47
2022-11-23T00:05:47.350Z,96723.25
2022-11-23T00:08:50.372Z,96725.03
2022-11-23T00:11:51.996Z,96729.22
2022-11-23T00:14:53.473Z,96724.59
2022-11-23T00:17:55.041Z,96727.34
2022-11-23T00:20:56.576Z,96736.91
2022-11-23T00:23:59.629Z,96733.41
2022-11-23T00:27:01.250Z,96739.63
2022-11-23T00:30:02.824Z,96738.78
2022-11-23T00:33:05.119Z,96735.28
2022-11-23T00:36:08.278Z,96732.53
2022-11-23T00:39:11.311Z,96739.72
2022-11-23T00:42:12.740Z,96731.50
2022-11-23T00:45:14.238Z,96737.84
2022-11-23T00:48:15.847Z,96743.38
2022-11-23T00:51:18.417Z,96745.09
2022-11-23T00:54:21.341Z,96738.94
2022-11-23T00:57:22.905Z,96738.94
2022-11-23T01:00:24.455Z,96732.97
2022-11-23T01:03:25.987Z,96734.00
2022-11-23T01:06:28.274Z,96750.06
2022-11-23T01:09:31.426Z,96741.28
2022-11-23T01:12:33.330Z,96744.91
2022-11-23T01:15:34.782Z,96752.84
2022-11-23T01:18:36.451Z,96752.00
2022-11-23T01:21:38.570Z,96748.50
2022-11-23T01:24:41.644Z,96745.88
2022-11-23T01:27:43.211Z,96750.22
2022-11-23T01:30:44.764Z,96745.72
2022-11-23T01:33:46.457Z,96751.75
2022-11-23T01:36:48.033Z,96745.16
2022-11-23T01:39:51.029Z,96753.09
2022-11-23T01:42:53.957Z,96754.81
2022-11-23T01:45:56.529Z,96760.19
2022-11-23T01:49:01.973Z,96764.47
2022-11-23T01:52:06.742Z,96760.81
2022-11-23T01:55:09.910Z,96764.22
2022-11-23T01:58:13.370Z,96768.66
2022-11-23T02:01:15.322Z,96770.44
2022-11-23T02:04:22.535Z,96761.47
2022-11-23T02:07:25.276Z,96773.00
2022-11-23T02:10:29.752Z,96769.59
2022-11-23T02:13:31.781Z,96777.44
2022-11-23T02:16:33.514Z,96774.78
2022-11-23T02:19:38.545Z,96776.31
2022-11-23T02:22:44.863Z,96766.75
2022-11-23T02:25:55.009Z,96777.53
2022-11-23T02:29:00.813Z,96775.56
2022-11-23T02:32:02.569Z,96770.34
2022-11-23T02:35:04.398Z,96770.34
2022-11-23T02:38:06.838Z,96768.47
2022-11-23T02:41:10.038Z,96771.03
2022-11-23T02:44:19.841Z,96766.56
2022-11-23T02:47:21.777Z,96764.72
2022-11-23T02:50:23.249Z,96776.84
2022-11-23T02:53:24.764Z,96772.31
2022-11-23T02:56:27.781Z,96776.75
2022-11-23T02:59:32.525Z,96777.69
2022-11-23T03:02:34.411Z,96782.13
2022-11-23T03:05:36.025Z,96780.25
2022-11-23T03:08:37.730Z,96783.06
2022-11-23T03:11:40.661Z,96786.47
2022-11-23T03:14:42.296Z,96772.31
2022-11-23T03:17:43.936Z,96769.66
2022-11-23T03:20:45.458Z,96778.53
2022-11-23T03:23:47.040Z,96779.38
2022-11-23T03:26:49.951Z,96773.25
2022-11-23T03:29:51.519Z,96773.25
2022-11-23T03:32:53.553Z,96772.13
2022-11-23T03:35:56.412Z,96778.25
2022-11-23T03:38:58.041Z,96777.34
2022-11-23T03:42:01.158Z,96761.72
2022-11-23T03:45:03.038Z,96771.19
2022-11-23T03:48:04.590Z,96772.22
2022-11-23T03:51:06.368Z,96775.69
2022-11-23T03:54:08.219Z,96773.06
2022-11-23T03:57:11.065Z,96778.25
2022-11-23T04:00:12.689Z,96780.66
2022-11-23T04:03:14.251Z,96780.56
2022-11-23T04:06:15.684Z,96775.38
2022-11-23T04:09:17.217Z,96778.88
2022-11-23T04:12:20.076Z,96784.16
2022-11-23T04:15:21.732Z,96777.25
2022-11-23T04:18:23.149Z,96787.75
2022-11-23T04:21:24.810Z,96786.03
2022-11-23T04:24:26.409Z,96781.59
2022-11-23T04:27:29.421Z,96790.41
2022-11-23T04:30:31.112Z,96793.91
2022-11-23T04:33:32.793Z,96792.19
2022-11-23T04:36:34.353Z,96788.59
2022-11-23T04:39:35.778Z,96781.78
2022-11-23T04:42:38.758Z,96795.03
2022-11-23T04:45:40.758Z,96786.91
2022-11-23T04:48:42.463Z,96797.50
2022-11-23T04:51:44.012Z,96793.03
2022-11-23T04:54:45.813Z,96791.44
2022-11-23T04:57:48.722Z,96794.84
2022-11-23T05:00:50.281Z,96794.00
2022-11-23T05:03:51.855Z,96801.16
2022-11-23T05:06:53.503Z,96800.38
2022-11-23T05:09:55.091Z,96796.13
2022-11-23T05:12:58.001Z,96799.53
2022-11-23T05:15:59.642Z,96793.56
2022-11-23T05:19:01.056Z,96788.44
2022-11-23T05:22:02.617Z,96791.34
2022-11-23T05:25:04.311Z,96791.53
2022-11-23T05:28:30.214Z,96794.25
2022-11-23T05:31:28.772Z,96788.34
2022-11-23T05:34:30.373Z,96795.28
2022-11-23T05:37:31.943Z,96800.72
2022-11-23T05:40:33.529Z,96802.44
2022-11-23T05:43:36.545Z,96805.88
2022-11-23T05:46:38.163Z,96798.69
2022-11-23T05:49:39.635Z,96807.22
2022-11-23T05:52:41.186Z,96813.22
2022-11-23T05:55:42.820Z,96809.63
2022-11-23T05:58:45.629Z,96807.84
2022-11-23T06:01:47.259Z,96805.28
2022-11-23T06:04:48.755Z,96807.06
2022-11-23T06:07:52.562Z,96816.88
2022-11-23T06:10:54.280Z,96817.97
2022-11-23T06:13:57.286Z,96816.28
2022-11-23T06:16:58.921Z,96810.03
2022-11-23T06:20:00.640Z,96814.41
2022-11-23T06:23:02.362Z,96820.44
2022-11-23T06:26:04.137Z,96823.81
2022-11-23T06:29:07.024Z,96826.34
2022-11-23T06:32:08.868Z,96822.78
2022-11-23T06:35:10.410Z,96828.91
2022-11-23T06:38:11.963Z,96822.78
2022-11-23T06:41:13.498Z,96826.19
2022-11-23T06:44:16.471Z,96827.78
2022-11-23T06:47:21.926Z,96828.72
2022-11-23T06:50:27.103Z,96838.47
2022-11-23T06:53:28.994Z,96840.94
2022-11-23T06:56:31.460Z,96840.03
2022-11-23T06:59:34.919Z,96835.59
2022-11-23T07:02:36.600Z,96843.53
2022-11-23T07:05:38.775Z,96847.97
2022-11-23T07:08:43.582Z,96848.03
2022-11-23T07:11:45.097Z,96850.63
2022-11-23T07:14:48.087Z,96856.06
2022-11-23T07:17:49.601Z,96856.81
2022-11-23T07:20:51.139Z,96855.97
2022-11-23T07:23:52.723Z,96856.81
2022-11-23T07:26:54.510Z,96864.53
2022-11-23T07:29:57.359Z,96855.63
2022-11-23T07:32:59.665Z,96867.06
2022-11-23T07:36:02.320Z,96865.38
2022-11-23T07:39:04.284Z,96861.78
2022-11-23T07:42:31.209Z,96872.19
2022-11-23T07:45:29.711Z,96876.50
2022-11-23T07:48:36.206Z,96879.72
2022-11-23T07:51:38.131Z,96875.88
2022-11-23T07:54:39.666Z,96876.75
2022-11-23T07:57:41.163Z,96890.69
2022-11-23T08:00:44.140Z,96885.28
2022-11-23T08:03:46.071Z,96879.91
2022-11-23T08:06:47.571Z,96882.56
2022-11-23T08:09:49.041Z,96888.53
2022-11-23T08:12:50.993Z,96888.47
2022-11-23T08:15:55.773Z,96894.53
2022-11-23T08:18:57.687Z,96889.03
2022-11-23T08:21:59.344Z,96887.16
2022-11-23T08:25:00.880Z,96898.44
2022-11-23T08:28:03.307Z,96903.66
2022-11-23T08:31:07.419Z,96887.56
2022-11-23T08:34:09.254Z,96892.88
2022-11-23T08:37:10.959Z,96892.69
2022-11-23T08:40:13.247Z,96899.69
2022-11-23T08:43:14.768Z,96889.69
2022-11-23T08:46:17.970Z,96908.81
2022-11-23T08:49:19.541Z,96899.00
2022-11-23T08:52:21.096Z,96899.78
2022-11-23T08:55:22.587Z,96904.13
2022-11-23T08:58:24.158Z,96899.59
2022-11-23T09:01:27.865Z,96904.78
2022-11-23T09:04:30.968Z,96910.00
2022-11-23T09:07:32.663Z,96916.06
2022-11-23T09:10:34.349Z,96916.56
2022-11-23T09:13:37.251Z,96907.69
2022-11-23T09:16:40.173Z,96915.44
2022-11-23T09:19:42.038Z,96909.13
2022-11-23T09:22:44.089Z,96906.94
2022-11-23T09:25:48.490Z,96914.56
2022-11-23T09:28:50.020Z,96914.13
2022-11-23T09:31:53.278Z,96906.91
2022-11-23T09:34:54.873Z,96912.38
2022-11-23T09:37:57.520Z,96915.13
2022-11-23T09:41:03.879Z,96910.78
2022-11-23T09:44:08.600Z,96921.03
2022-11-23T09:47:22.646Z,96917.03
2022-11-23T09:50:27.247Z,96924.75
2022-11-23T09:53:33.677Z,96924.28
2022-11-23T09:56:36.608Z,96922.31
2022-11-23T09:59:40.913Z,96927.81
2022-11-23T10:02:43.795Z,96926.50
2022-11-23T10:05:48.177Z,96920.50
2022-11-23T10:08:55.670Z,96919.34
2022-11-23T10:12:02.666Z,96920.41
2022-11-23T10:15:09.938Z,96920.06
2022-11-23T10:18:22.645Z,96927.16
2022-11-23T10:21:30.314Z,96927.06
2022-11-23T10:24:34.041Z,96930.28
2022-11-23T10:27:36.055Z,96925.66
2022-11-23T10:30:38.564Z,96923.47
2022-11-23T10:33:46.613Z,96925.38
2022-11-23T10:36:48.180Z,96930.56
2022-11-23T10:39:49.694Z,96926.03
2022-11-23T10:42:53.816Z,96923.47
2022-11-23T10:46:17.460Z,96926.13
2022-11-23T10:49:21.213Z,96927.00
2022-11-23T10:52:27.901Z,96917.78
2022-11-23T10:55:31.703Z,96927.09
2022-11-23T10:58:37.104Z,96920.91
2022-11-23T11:01:38.720Z,96915.66
2022-11-23T11:04:41.713Z,96916.03
2022-11-23T11:07:43.437Z,96918.81
2022-11-23T11:10:46.464Z,96917.00
2022-11-23T11:13:48.533Z,96906.75
2022-11-23T11:16:51.257Z,96911.59
2022-11-23T11:19:54.666Z,96904.25
2022-11-23T11:22:57.261Z,96906.31
2022-11-23T11:26:10.583Z,96902.44
2022-11-23T11:29:23.332Z,96904.88
2022-11-23T11:32:29.129Z,96901.25
2022-11-23T11:35:34.677Z,96898.63
2022-11-23T11:38:37.417Z,96894.84
2022-11-23T11:41:39.908Z,96896.44
2022-11-23T11:44:43.022Z,96900.38
2022-11-23T11:47:47.338Z,96894.28
2022-11-23T11:50:52.547Z,96888.84
2022-11-23T11:53:57.526Z,96892.22
2022-11-23T11:57:02.499Z,96885.66
2022-11-23T12:00:07.456Z,96895.34
2022-11-23T12:03:15.068Z,96884.38
2022-11-23T12:06:26.345Z,96883.19
2022-11-23T12:09:31.599Z,96897.56
2022-11-23T12:12:34.738Z,96902.00
2022-11-23T12:15:55.663Z,96893.28
2022-11-23T12:19:04.584Z,96890.63
2022-11-23T12:22:14.638Z,96889.53
2022-11-23T12:25:20.649Z,96889.94
2022-11-23T12:28:28.503Z,96891.69
2022-11-23T12:31:39.450Z,96893.16
2022-11-23T12:34:50.358Z,96891.44
2022-11-23T12:37:59.614Z,96891.75
2022-11-23T12:41:08.623Z,96892.22
2022-11-23T12:44:34.521Z,96886.06
2022-11-23T12:47:43.097Z,96886.31
2022-11-23T12:50:47.490Z,96880.91
2022-11-23T12:53:54.716Z,96872.41
2022-11-23T12:57:02.718Z,96872.22
2022-11-23T13:00:06.523Z,96870.81
2022-11-23T13:03:25.949Z,96865.03
2022-11-23T13:07:20.265Z,96863.34
2022-11-23T13:10:27.830Z,96863.13
2022-11-23T13:13:36.715Z,96866.00
2022-11-23T13:16:54.572Z,96853.75
2022-11-23T13:20:07.915Z,96858.97
2022-11-23T13:23:09.539Z,96855.47
2022-11-23T13:26:18.009Z,96854.22
2022-11-23T13:29:34.318Z,96848.06
2022-11-23T13:32:46.610Z,96857.44
2022-11-23T13:35:51.405Z,96843.59
2022-11-23T13:38:52.999Z,96851.56
2022-11-23T13:42:00.612Z,96845.50
2022-11-23T13:45:22.476Z,96849.09
2022-11-23T13:48:56.271Z,96846.66
2022-11-23T13:52:04.036Z,96843.03
2022-11-23T13:55:18.453Z,96832.69
2022-11-23T13:58:40.061Z,96842.66
2022-11-23T14:02:00.536Z,96844.56
2022-11-23T14:05:20.972Z,96838.22
2022-11-23T14:08:28.198Z,96836.81
2022-11-23T14:11:30.644Z,96840.69
2022-11-23T14:14:40.179Z,96836.66
2022-11-23T14:17:55.812Z,96830.50
2022-11-23T14:21:04.125Z,96841.56
2022-11-23T14:24:19.815Z,96836.75
2022-11-23T14:27:46.746Z,96845.19
2022-11-23T14:30:56.008Z,96849.16
2022-11-23T14:34:02.977Z,96852.56
2022-11-23T14:37:09.340Z,96852.66
2022-11-23T14:40:17.933Z,96850.88
2022-11-23T14:43:20.100Z,96848.31
2022-11-23T14:46:22.708Z,96861.69
2022-11-23T14:49:24.914Z,96855.97
2022-11-23T14:52:27.674Z,96856.84
2022-11-23T14:55:30.696Z,96862.59
2022-11-23T14:58:32.891Z,96864.59
2022-11-23T15:01:34.940Z,96862.91
2022-11-23T15:04:42.267Z,96854.44
2022-11-23T15:07:50.920Z,96857.94
2022-11-23T15:11:00.052Z,96857.47
2022-11-23T15:14:04.790Z,96852.44
2022-11-23T15:17:15.935Z,96849.88
2022-11-23T15:20:17.479Z,96856.22
2022-11-23T15:23:20.656Z,96850.34
2022-11-23T15:26:46.631Z,96848.91
2022-11-23T15:29:51.028Z,96848.31
2022-11-23T15:32:56.813Z,96844.91
2022-11-23T15:35:58.449Z,96835.25
2022-11-23T15:39:01.401Z,96832.91
2022-11-23T15:42:04.951Z,96836.00
2022-11-23T15:45:26.937Z,96852.75
2022-11-23T15:48:29.889Z,96839.94
2022-11-23T15:51:33.216Z,96845.50
2022-11-23T15:54:35.827Z,96844.06
2022-11-23T15:57:39.734Z,96840.66
2022-11-23T16:00:46.914Z,96843.56
2022-11-23T16:04:09.858Z,96853.47
2022-11-23T16:07:19.062Z,96849.13
2022-11-23T16:10:21.559Z,96851.63
2022-11-23T16:13:35.928Z,96857.06
2022-11-23T16:16:42.708Z,96856.22
2022-11-23T16:19:47.827Z,96852.72
2022-11-23T16:22:50.190Z,96851.72
2022-11-23T16:25:59.370Z,96858.88
2022-11-23T16:29:02.440Z,96849.41
2022-11-23T16:32:07.152Z,96862.75
2022-11-23T16:35:15.484Z,96863.06
2022-11-23T16:38:17.103Z,96867.59
2022-11-23T16:41:19.004Z,96874.00
2022-11-23T16:44:21.853Z,96881.94
2022-11-23T16:47:24.403Z,96881.94
2022-11-23T16:50:27.366Z,96887.31
2022-11-23T16:53:47.081Z,96885.44
2022-11-23T16:56:52.676Z,96889.88
2022-11-23T16:59:55.651Z,96894.41
2022-11-23T17:02:59.125Z,96897.97
2022-11-23T17:06:00.712Z,96899.97
2022-11-23T17:09:07.941Z,96911.56
2022-11-23T17:12:14.538Z,96911.16
2022-11-23T17:15:18.052Z,96919.25
2022-11-23T17:18:22.871Z,96930.94
2022-11-23T17:21:24.458Z,96929.50
2022-11-23T17:24:26.163Z,96927.78
2022-11-23T17:27:28.950Z,96941.09
2022-11-23T17:30:33.023Z,96945.69
2022-11-23T17:33:34.626Z,96943.75
2022-11-23T17:36:36.259Z,96946.06
2022-11-23T17:39:37.786Z,96949.22
2022-11-23T17:42:39.188Z,96951.63
2022-11-23T17:45:42.891Z,96959.56
2022-11-23T17:48:44.842Z,96963.06
2022-11-23T17:51:46.346Z,96961.28
2022-11-23T17:54:48.147Z,96966.81
2022-11-23T17:57:49.728Z,96971.66
2022-11-23T18:00:52.586Z,96968.16
2022-11-23T18:03:54.185Z,96973.72
2022-11-23T18:06:55.931Z,96986.09
2022-11-23T18:09:57.600Z,96986.88
2022-11-23T18:12:59.155Z,96982.25
2022-11-23T18:16:02.205Z,96981.31
2022-11-23T18:19:04.621Z,96987.06
2022-11-23T18:22:06.410Z,96984.31
2022-11-23T18:25:08.452Z,96991.19
2022-11-23T18:28:10.454Z,96997.34
2022-11-23T18:31:13.582Z,96997.38
2022-11-23T18:34:15.352Z,96998.50
2022-11-23T18:37:16.919Z,97002.00
2022-11-23T18:40:18.604Z,96998.50
2022-11-23T18:43:20.265Z,97004.06
2022-11-23T18:46:23.468Z,97005.84
2022-11-23T18:49:25.131Z,97014.88
2022-11-23T18:52:26.723Z,97013.00
2022-11-23T18:55:28.178Z,97017.69
2022-11-23T18:58:31.815Z,97020.59
2022-11-23T19:01:35.127Z,97020.50
2022-11-23T19:04:38.749Z,97018.00
2022-11-23T19:07:40.256Z,97020.81
2022-11-23T19:10:41.844Z,97020.75
2022-11-23T19:13:43.841Z,97012.88
2022-11-23T19:16:46.732Z,97013.66
2022-11-23T19:19:48.284Z,97016.22
2022-11-23T19:22:50.091Z,97019.66
2022-11-23T19:25:51.657Z,97022.59
2022-11-23T19:28:54.022Z,97020.31
2022-11-23T19:31:56.947Z,97029.03
2022-11-23T19:34:59.240Z,97037.72
2022-11-23T19:38:00.818Z,97033.38
2022-11-23T19:41:02.376Z,97040.22
2022-11-23T19:44:04.455Z,97040.13
2022-11-23T19:47:13.739Z,97043.63
2022-11-23T19:50:17.104Z,97036.63
2022-11-23T19:53:18.729Z,97043.63
2022-11-23T19:56:21.094Z,97047.22
2022-11-23T19:59:23.964Z,97046.97
2022-11-23T20:02:27.152Z,97041.81
2022-11-23T20:05:28.761Z,97049.84
2022-11-23T20:08:30.672Z,97042.00
2022-11-23T20:11:36.288Z,97043.97
2022-11-23T20:14:38.062Z,97057.28
2022-11-23T20:17:41.385Z,97063.66
2022-11-23T20:20:43.658Z,97064.09
2022-11-23T20:23:45.958Z,97061.75
2022-11-23T20:26:47.515Z,97060.81
2022-11-23T20:29:49.294Z,97060.13
2022-11-23T20:32:52.264Z,97068.94
2022-11-23T20:35:53.657Z,97085.03
2022-11-23T20:38:55.721Z,97091.69
2022-11-23T20:41:58.754Z,97095.56
2022-11-23T20:45:00.632Z,97098.75
2022-11-23T20:48:03.642Z,97098.28
2022-11-23T20:51:10.211Z,97103.72
2022-11-23T20:54:12.368Z,97105.88
2022-11-23T20:57:13.883Z,97110.47
2022-11-23T21:00:16.838Z,97113.34
2022-11-23T21:03:19.779Z,97116.13
2022-11-23T21:06:22.077Z,97120.72
2022-11-23T21:09:23.861Z,97134.88
2022-11-23T21:12:49.129Z,97130.53
2022-11-23T21:15:52.100Z,97135.91
2022-11-23T21:18:55.058Z,97144.75
2022-11-23T21:21:57.570Z,97141.25
2022-11-23T21:24:59.029Z,97142.16
2022-11-23T21:28:03.202Z,97149.25
2022-11-23T21:31:08.178Z,97149.31
2022-11-23T21:34:17.571Z,97153.69
2022-11-23T21:37:19.061Z,97151.19
2022-11-23T21:40:20.690Z,97163.56
2022-11-23T21:43:22.188Z,97160.91
2022-11-23T21:46:24.625Z,97175.91
2022-11-23T21:49:28.536Z,97164.41
2022-11-23T21:52:30.496Z,97161.75
2022-11-23T21:55:32.774Z,97168.00
2022-11-23T21:58:48.176Z,97163.63
2022-11-23T22:01:49.880Z,97166.28
2022-11-23T22:04:53.044Z,97169.78
2022-11-23T22:08:27.838Z,97174.06
2022-11-23T22:11:17.354Z,97174.06
2022-11-23T22:14:19.744Z,97174.91
2022-11-23T22:17:21.248Z,97177.56
2022-11-23T22:20:24.113Z,97184.56
2022-11-23T22:23:25.920Z,97183.63
2022-11-23T22:26:30.300Z,97180.91
2022-11-23T22:29:31.875Z,97186.06
2022-11-23T22:32:33.383Z,97185.22
2022-11-23T22:35:36.402Z,97192.13
2022-11-23T22:38:38.389Z,97191.13
2022-11-23T22:41:40.042Z,97199.06
2022-11-23T22:44:41.857Z,97204.19
2022-11-23T22:47:43.444Z,97207.63
2022-11-23T22:50:56.383Z,97206.72
2022-11-23T22:53:58.776Z,97207.41
2022-11-23T22:57:00.421Z,97214.50
2022-11-23T23:00:01.947Z,97203.91
2022-11-23T23:03:03.771Z,97207.31
2022-11-23T23:06:07.859Z,97216.03
2022-11-23T23:09:09.922Z,97208.03
2022-11-23T23:12:11.453Z,97223.78
2022-11-23T23:15:13.142Z,97228.13
2022-11-23T23:18:16.257Z,97239.50
2022-11-23T23:21:19.898Z,97234.97
2022-11-23T23:24:21.493Z,97237.53
2022-11-23T23:27:23.453Z,97240.16
2022-11-23T23:30:25.058Z,97238.34
2022-11-23T23:33:28.336Z,97241.03
2022-11-23T23:36:31.282Z,97242.06
2022-11-23T23:39:32.828Z,97243.16
2022-11-23T23:42:34.337Z,97252.88
2022-11-23T23:45:35.884Z,97254.50
2022-11-23T23:48:38.141Z,97250.94
2022-11-23T23:51:41.250Z,97262.44
2022-11-23T23:54:43.210Z,97260.66
2022-11-23T23:57:44.759Z,97264.06
